sensor_id;sensor_type;location;lat;lon;timestamp;P1;durP1;ratioP1;P2;durP2;ratioP2
44842;SDS011;31884;52.538;13.820;2024-01-10T00:00:09;57.63;;;25.47;;
44842;SDS011;31884;52.538;13.820;2024-01-10T00:02:34;56.20;;;22.23;;
44842;SDS011;31884;52.538;13.820;2024-01-10T00:05:00;63.90;;;25.57;;
44842;SDS011;31884;52.538;13.820;2024-01-10T00:07:25;54.80;;;22.40;;
44842;SDS011;31884;52.538;13.820;2024-01-10T00:09:51;50.40;;;19.17;;
44842;SDS011;31884;52.538;13.820;2024-01-10T00:12:16;76.00;;;28.07;;
44842;SDS011;31884;52.538;13.820;2024-01-10T00:14:42;42.40;;;18.63;;
44842;SDS011;31884;52.538;13.820;2024-01-10T00:17:07;75.83;;;28.30;;
44842;SDS011;31884;52.538;13.820;2024-01-10T00:19:33;55.00;;;21.70;;
44842;SDS011;31884;52.538;13.820;2024-01-10T00:21:59;61.70;;;22.87;;
44842;SDS011;31884;52.538;13.820;2024-01-10T00:24:24;59.67;;;22.13;;
44842;SDS011;31884;52.538;13.820;2024-01-10T00:26:49;40.70;;;20.07;;
44842;SDS011;31884;52.538;13.820;2024-01-10T00:29:15;53.13;;;20.17;;
44842;SDS011;31884;52.538;13.820;2024-01-10T00:31:40;48.20;;;19.70;;
44842;SDS011;31884;52.538;13.820;2024-01-10T00:34:06;54.13;;;21.27;;
44842;SDS011;31884;52.538;13.820;2024-01-10T00:36:31;57.50;;;21.00;;
44842;SDS011;31884;52.538;13.820;2024-01-10T00:38:57;55.93;;;22.43;;
44842;SDS011;31884;52.538;13.820;2024-01-10T00:41:22;50.80;;;19.40;;
44842;SDS011;31884;52.538;13.820;2024-01-10T00:43:48;51.50;;;20.97;;
44842;SDS011;31884;52.538;13.820;2024-01-10T00:46:13;52.77;;;20.27;;
44842;SDS011;31884;52.538;13.820;2024-01-10T00:48:39;52.80;;;21.07;;
44842;SDS011;31884;52.538;13.820;2024-01-10T00:51:04;45.27;;;18.03;;
44842;SDS011;31884;52.538;13.820;2024-01-10T00:53:33;48.73;;;18.97;;
44842;SDS011;31884;52.538;13.820;2024-01-10T00:55:59;50.57;;;21.33;;
44842;SDS011;31884;52.538;13.820;2024-01-10T00:58:25;46.20;;;19.53;;
44842;SDS011;31884;52.538;13.820;2024-01-10T01:00:50;51.57;;;20.83;;
44842;SDS011;31884;52.538;13.820;2024-01-10T01:03:16;46.00;;;18.60;;
44842;SDS011;31884;52.538;13.820;2024-01-10T01:05:41;42.53;;;19.27;;
44842;SDS011;31884;52.538;13.820;2024-01-10T01:08:07;52.73;;;20.27;;
44842;SDS011;31884;52.538;13.820;2024-01-10T01:10:33;70.10;;;27.33;;
44842;SDS011;31884;52.538;13.820;2024-01-10T01:12:59;51.80;;;18.80;;
44842;SDS011;31884;52.538;13.820;2024-01-10T01:15:24;64.90;;;22.60;;
44842;SDS011;31884;52.538;13.820;2024-01-10T01:17:49;62.00;;;28.03;;
44842;SDS011;31884;52.538;13.820;2024-01-10T01:20:15;65.07;;;25.27;;
44842;SDS011;31884;52.538;13.820;2024-01-10T01:22:41;65.50;;;22.63;;
44842;SDS011;31884;52.538;13.820;2024-01-10T01:25:06;66.07;;;24.93;;
44842;SDS011;31884;52.538;13.820;2024-01-10T01:27:32;82.53;;;25.57;;
44842;SDS011;31884;52.538;13.820;2024-01-10T01:29:58;62.90;;;24.30;;
44842;SDS011;31884;52.538;13.820;2024-01-10T01:32:23;61.67;;;24.63;;
44842;SDS011;31884;52.538;13.820;2024-01-10T01:34:48;62.17;;;25.10;;
44842;SDS011;31884;52.538;13.820;2024-01-10T01:37:14;58.27;;;24.27;;
44842;SDS011;31884;52.538;13.820;2024-01-10T01:39:40;46.37;;;20.60;;
44842;SDS011;31884;52.538;13.820;2024-01-10T01:42:05;73.53;;;28.13;;
44842;SDS011;31884;52.538;13.820;2024-01-10T01:44:31;70.13;;;27.07;;
44842;SDS011;31884;52.538;13.820;2024-01-10T01:46:57;54.20;;;24.63;;
44842;SDS011;31884;52.538;13.820;2024-01-10T01:49:23;54.33;;;22.70;;
44842;SDS011;31884;52.538;13.820;2024-01-10T01:51:50;59.20;;;24.63;;
44842;SDS011;31884;52.538;13.820;2024-01-10T01:54:16;67.70;;;26.67;;
44842;SDS011;31884;52.538;13.820;2024-01-10T01:56:42;75.23;;;30.73;;
44842;SDS011;31884;52.538;13.820;2024-01-10T01:59:09;81.97;;;28.40;;
44842;SDS011;31884;52.538;13.820;2024-01-10T02:01:35;85.43;;;30.53;;
44842;SDS011;31884;52.538;13.820;2024-01-10T02:04:01;88.53;;;31.93;;
44842;SDS011;31884;52.538;13.820;2024-01-10T02:06:28;79.30;;;30.77;;
44842;SDS011;31884;52.538;13.820;2024-01-10T02:08:55;90.10;;;33.37;;
44842;SDS011;31884;52.538;13.820;2024-01-10T02:11:21;96.97;;;32.57;;
44842;SDS011;31884;52.538;13.820;2024-01-10T02:13:47;73.00;;;30.67;;
44842;SDS011;31884;52.538;13.820;2024-01-10T02:16:13;75.00;;;30.97;;
44842;SDS011;31884;52.538;13.820;2024-01-10T02:18:38;97.37;;;36.70;;
44842;SDS011;31884;52.538;13.820;2024-01-10T02:21:04;79.93;;;31.00;;
44842;SDS011;31884;52.538;13.820;2024-01-10T02:23:29;79.43;;;30.70;;
44842;SDS011;31884;52.538;13.820;2024-01-10T02:25:55;99.10;;;35.87;;
44842;SDS011;31884;52.538;13.820;2024-01-10T02:28:21;80.10;;;31.50;;
44842;SDS011;31884;52.538;13.820;2024-01-10T02:30:48;94.27;;;33.67;;
44842;SDS011;31884;52.538;13.820;2024-01-10T02:33:14;70.10;;;27.67;;
44842;SDS011;31884;52.538;13.820;2024-01-10T02:35:40;85.03;;;33.50;;
44842;SDS011;31884;52.538;13.820;2024-01-10T02:38:06;68.73;;;27.17;;
44842;SDS011;31884;52.538;13.820;2024-01-10T02:40:31;63.73;;;26.97;;
44842;SDS011;31884;52.538;13.820;2024-01-10T02:42:57;69.33;;;27.73;;
44842;SDS011;31884;52.538;13.820;2024-01-10T02:45:22;71.63;;;29.33;;
44842;SDS011;31884;52.538;13.820;2024-01-10T02:47:48;66.93;;;26.30;;
44842;SDS011;31884;52.538;13.820;2024-01-10T02:50:13;88.83;;;31.53;;
44842;SDS011;31884;52.538;13.820;2024-01-10T02:52:38;68.60;;;26.33;;
44842;SDS011;31884;52.538;13.820;2024-01-10T02:55:04;81.30;;;31.30;;
44842;SDS011;31884;52.538;13.820;2024-01-10T02:57:30;73.67;;;30.20;;
44842;SDS011;31884;52.538;13.820;2024-01-10T02:59:55;83.73;;;33.03;;
44842;SDS011;31884;52.538;13.820;2024-01-10T03:02:21;63.37;;;26.07;;
44842;SDS011;31884;52.538;13.820;2024-01-10T03:04:48;69.50;;;27.43;;
44842;SDS011;31884;52.538;13.820;2024-01-10T03:07:14;80.07;;;30.27;;
44842;SDS011;31884;52.538;13.820;2024-01-10T03:09:39;79.97;;;30.33;;
44842;SDS011;31884;52.538;13.820;2024-01-10T03:12:05;78.23;;;30.87;;
44842;SDS011;31884;52.538;13.820;2024-01-10T03:14:30;108.03;;;37.47;;
44842;SDS011;31884;52.538;13.820;2024-01-10T03:16:57;86.90;;;34.83;;
44842;SDS011;31884;52.538;13.820;2024-01-10T03:19:22;84.57;;;33.37;;
44842;SDS011;31884;52.538;13.820;2024-01-10T03:21:48;100.70;;;32.40;;
44842;SDS011;31884;52.538;13.820;2024-01-10T03:24:13;72.90;;;29.23;;
44842;SDS011;31884;52.538;13.820;2024-01-10T03:26:39;86.43;;;34.00;;
44842;SDS011;31884;52.538;13.820;2024-01-10T03:29:04;83.57;;;32.80;;
44842;SDS011;31884;52.538;13.820;2024-01-10T03:31:30;75.63;;;28.07;;
44842;SDS011;31884;52.538;13.820;2024-01-10T03:33:56;74.27;;;29.83;;
44842;SDS011;31884;52.538;13.820;2024-01-10T03:36:23;66.10;;;27.77;;
44842;SDS011;31884;52.538;13.820;2024-01-10T03:38:49;66.87;;;26.43;;
44842;SDS011;31884;52.538;13.820;2024-01-10T03:41:15;86.63;;;31.77;;
44842;SDS011;31884;52.538;13.820;2024-01-10T03:43:44;61.80;;;25.10;;
44842;SDS011;31884;52.538;13.820;2024-01-10T03:46:10;76.57;;;30.00;;
44842;SDS011;31884;52.538;13.820;2024-01-10T03:48:36;75.67;;;32.73;;
44842;SDS011;31884;52.538;13.820;2024-01-10T03:51:02;70.17;;;28.23;;
44842;SDS011;31884;52.538;13.820;2024-01-10T03:53:28;67.17;;;27.63;;
44842;SDS011;31884;52.538;13.820;2024-01-10T03:55:53;68.97;;;29.00;;
44842;SDS011;31884;52.538;13.820;2024-01-10T03:58:19;67.60;;;25.07;;
44842;SDS011;31884;52.538;13.820;2024-01-10T04:00:45;63.53;;;24.20;;
44842;SDS011;31884;52.538;13.820;2024-01-10T04:03:10;60.40;;;23.37;;
44842;SDS011;31884;52.538;13.820;2024-01-10T04:05:35;80.40;;;29.80;;
44842;SDS011;31884;52.538;13.820;2024-01-10T04:08:01;65.70;;;26.60;;
44842;SDS011;31884;52.538;13.820;2024-01-10T04:10:27;66.33;;;25.07;;
44842;SDS011;31884;52.538;13.820;2024-01-10T04:12:53;59.23;;;23.00;;
44842;SDS011;31884;52.538;13.820;2024-01-10T04:15:18;48.40;;;20.57;;
44842;SDS011;31884;52.538;13.820;2024-01-10T04:17:44;57.87;;;22.00;;
44842;SDS011;31884;52.538;13.820;2024-01-10T04:20:09;62.30;;;23.10;;
44842;SDS011;31884;52.538;13.820;2024-01-10T04:22:35;77.93;;;28.20;;
44842;SDS011;31884;52.538;13.820;2024-01-10T04:25:01;79.47;;;27.17;;
44842;SDS011;31884;52.538;13.820;2024-01-10T04:27:30;66.87;;;27.40;;
44842;SDS011;31884;52.538;13.820;2024-01-10T04:29:55;72.87;;;30.73;;
44842;SDS011;31884;52.538;13.820;2024-01-10T04:32:21;67.53;;;24.33;;
44842;SDS011;31884;52.538;13.820;2024-01-10T04:34:47;70.43;;;28.03;;
44842;SDS011;31884;52.538;13.820;2024-01-10T04:37:12;105.77;;;34.97;;
44842;SDS011;31884;52.538;13.820;2024-01-10T04:39:38;93.53;;;34.23;;
44842;SDS011;31884;52.538;13.820;2024-01-10T04:42:05;83.63;;;32.97;;
44842;SDS011;31884;52.538;13.820;2024-01-10T04:44:30;70.50;;;28.07;;
44842;SDS011;31884;52.538;13.820;2024-01-10T04:46:56;66.23;;;25.73;;
44842;SDS011;31884;52.538;13.820;2024-01-10T04:49:22;67.00;;;26.73;;
44842;SDS011;31884;52.538;13.820;2024-01-10T04:51:47;67.70;;;26.77;;
44842;SDS011;31884;52.538;13.820;2024-01-10T04:54:13;98.43;;;37.37;;
44842;SDS011;31884;52.538;13.820;2024-01-10T04:56:38;70.10;;;27.63;;
44842;SDS011;31884;52.538;13.820;2024-01-10T04:59:04;67.60;;;26.73;;
44842;SDS011;31884;52.538;13.820;2024-01-10T05:01:30;68.87;;;25.27;;
44842;SDS011;31884;52.538;13.820;2024-01-10T05:03:56;63.07;;;25.10;;
44842;SDS011;31884;52.538;13.820;2024-01-10T05:06:22;109.37;;;37.43;;
44842;SDS011;31884;52.538;13.820;2024-01-10T05:08:48;72.17;;;29.90;;
44842;SDS011;31884;52.538;13.820;2024-01-10T05:11:13;60.67;;;26.53;;
44842;SDS011;31884;52.538;13.820;2024-01-10T05:13:40;69.17;;;27.10;;
44842;SDS011;31884;52.538;13.820;2024-01-10T05:16:06;78.73;;;30.57;;
44842;SDS011;31884;52.538;13.820;2024-01-10T05:18:31;60.97;;;23.20;;
44842;SDS011;31884;52.538;13.820;2024-01-10T05:20:58;70.73;;;28.97;;
44842;SDS011;31884;52.538;13.820;2024-01-10T05:23:24;67.20;;;26.80;;
44842;SDS011;31884;52.538;13.820;2024-01-10T05:25:49;71.47;;;25.43;;
44842;SDS011;31884;52.538;13.820;2024-01-10T05:28:15;83.37;;;28.83;;
44842;SDS011;31884;52.538;13.820;2024-01-10T05:30:41;100.33;;;38.00;;
44842;SDS011;31884;52.538;13.820;2024-01-10T05:33:08;72.70;;;28.70;;
44842;SDS011;31884;52.538;13.820;2024-01-10T05:35:33;69.03;;;26.70;;
44842;SDS011;31884;52.538;13.820;2024-01-10T05:38:00;66.63;;;26.30;;
44842;SDS011;31884;52.538;13.820;2024-01-10T05:40:27;72.47;;;30.13;;
44842;SDS011;31884;52.538;13.820;2024-01-10T05:42:55;67.33;;;26.20;;
44842;SDS011;31884;52.538;13.820;2024-01-10T05:45:20;73.57;;;27.07;;
44842;SDS011;31884;52.538;13.820;2024-01-10T05:47:46;51.67;;;21.07;;
44842;SDS011;31884;52.538;13.820;2024-01-10T05:50:13;58.47;;;23.00;;
44842;SDS011;31884;52.538;13.820;2024-01-10T05:52:39;56.60;;;21.67;;
44842;SDS011;31884;52.538;13.820;2024-01-10T05:55:04;61.77;;;24.77;;
44842;SDS011;31884;52.538;13.820;2024-01-10T05:57:31;59.87;;;24.67;;
44842;SDS011;31884;52.538;13.820;2024-01-10T05:59:57;60.40;;;19.90;;
44842;SDS011;31884;52.538;13.820;2024-01-10T06:02:23;66.77;;;26.20;;
44842;SDS011;31884;52.538;13.820;2024-01-10T06:04:49;62.73;;;25.23;;
44842;SDS011;31884;52.538;13.820;2024-01-10T06:07:15;77.17;;;29.13;;
44842;SDS011;31884;52.538;13.820;2024-01-10T06:09:40;68.80;;;28.27;;
44842;SDS011;31884;52.538;13.820;2024-01-10T06:12:08;54.53;;;22.50;;
44842;SDS011;31884;52.538;13.820;2024-01-10T06:14:34;82.00;;;31.63;;
44842;SDS011;31884;52.538;13.820;2024-01-10T06:16:59;70.33;;;26.33;;
44842;SDS011;31884;52.538;13.820;2024-01-10T06:19:26;60.80;;;22.73;;
44842;SDS011;31884;52.538;13.820;2024-01-10T06:21:51;56.43;;;22.60;;
44842;SDS011;31884;52.538;13.820;2024-01-10T06:24:17;58.20;;;22.60;;
44842;SDS011;31884;52.538;13.820;2024-01-10T06:26:44;68.70;;;24.60;;
44842;SDS011;31884;52.538;13.820;2024-01-10T06:29:09;81.43;;;30.97;;
44842;SDS011;31884;52.538;13.820;2024-01-10T06:31:35;62.80;;;26.43;;
44842;SDS011;31884;52.538;13.820;2024-01-10T06:34:00;73.23;;;28.77;;
44842;SDS011;31884;52.538;13.820;2024-01-10T06:36:26;74.80;;;27.93;;
44842;SDS011;31884;52.538;13.820;2024-01-10T06:38:51;76.57;;;27.50;;
44842;SDS011;31884;52.538;13.820;2024-01-10T06:41:17;61.00;;;25.57;;
44842;SDS011;31884;52.538;13.820;2024-01-10T06:43:48;54.40;;;23.80;;
44842;SDS011;31884;52.538;13.820;2024-01-10T06:46:13;63.57;;;23.93;;
44842;SDS011;31884;52.538;13.820;2024-01-10T06:48:39;90.33;;;31.87;;
44842;SDS011;31884;52.538;13.820;2024-01-10T06:51:06;80.40;;;32.20;;
44842;SDS011;31884;52.538;13.820;2024-01-10T06:53:35;65.93;;;26.67;;
44842;SDS011;31884;52.538;13.820;2024-01-10T06:56:01;66.33;;;27.00;;
44842;SDS011;31884;52.538;13.820;2024-01-10T06:58:26;88.70;;;32.60;;
44842;SDS011;31884;52.538;13.820;2024-01-10T07:00:52;92.90;;;33.20;;
44842;SDS011;31884;52.538;13.820;2024-01-10T07:03:17;78.80;;;31.67;;
44842;SDS011;31884;52.538;13.820;2024-01-10T07:05:44;80.67;;;29.07;;
44842;SDS011;31884;52.538;13.820;2024-01-10T07:08:09;70.03;;;28.20;;
44842;SDS011;31884;52.538;13.820;2024-01-10T07:10:35;73.13;;;28.57;;
44842;SDS011;31884;52.538;13.820;2024-01-10T07:13:00;71.20;;;27.80;;
44842;SDS011;31884;52.538;13.820;2024-01-10T07:15:29;78.60;;;31.20;;
44842;SDS011;31884;52.538;13.820;2024-01-10T07:17:55;55.20;;;23.23;;
44842;SDS011;31884;52.538;13.820;2024-01-10T07:20:20;58.37;;;23.77;;
44842;SDS011;31884;52.538;13.820;2024-01-10T07:22:48;77.80;;;31.70;;
44842;SDS011;31884;52.538;13.820;2024-01-10T07:25:14;66.50;;;29.23;;
44842;SDS011;31884;52.538;13.820;2024-01-10T07:27:40;70.77;;;27.67;;
44842;SDS011;31884;52.538;13.820;2024-01-10T07:30:07;79.20;;;32.07;;
44842;SDS011;31884;52.538;13.820;2024-01-10T07:32:38;108.03;;;37.27;;
44842;SDS011;31884;52.538;13.820;2024-01-10T07:35:08;74.87;;;30.57;;
44842;SDS011;31884;52.538;13.820;2024-01-10T07:37:34;77.23;;;29.57;;
44842;SDS011;31884;52.538;13.820;2024-01-10T07:40:04;72.87;;;28.37;;
44842;SDS011;31884;52.538;13.820;2024-01-10T07:42:31;69.37;;;28.20;;
44842;SDS011;31884;52.538;13.820;2024-01-10T07:44:57;79.60;;;32.80;;
44842;SDS011;31884;52.538;13.820;2024-01-10T07:47:23;77.00;;;31.37;;
44842;SDS011;31884;52.538;13.820;2024-01-10T07:49:48;86.40;;;31.50;;
44842;SDS011;31884;52.538;13.820;2024-01-10T07:52:14;88.30;;;31.03;;
44842;SDS011;31884;52.538;13.820;2024-01-10T07:54:41;60.33;;;23.97;;
44842;SDS011;31884;52.538;13.820;2024-01-10T07:57:07;57.43;;;26.27;;
44842;SDS011;31884;52.538;13.820;2024-01-10T07:59:32;64.43;;;29.27;;
44842;SDS011;31884;52.538;13.820;2024-01-10T08:01:59;67.93;;;28.30;;
44842;SDS011;31884;52.538;13.820;2024-01-10T08:04:25;56.63;;;22.40;;
44842;SDS011;31884;52.538;13.820;2024-01-10T08:06:51;61.97;;;26.17;;
44842;SDS011;31884;52.538;13.820;2024-01-10T08:09:18;98.37;;;36.60;;
44842;SDS011;31884;52.538;13.820;2024-01-10T08:11:46;99.87;;;36.80;;
44842;SDS011;31884;52.538;13.820;2024-01-10T08:14:12;69.87;;;28.10;;
44842;SDS011;31884;52.538;13.820;2024-01-10T08:16:38;115.80;;;39.83;;
44842;SDS011;31884;52.538;13.820;2024-01-10T08:19:04;94.73;;;40.00;;
44842;SDS011;31884;52.538;13.820;2024-01-10T08:21:29;93.63;;;39.20;;
44842;SDS011;31884;52.538;13.820;2024-01-10T08:23:55;113.33;;;43.20;;
44842;SDS011;31884;52.538;13.820;2024-01-10T08:26:20;109.47;;;41.57;;
44842;SDS011;31884;52.538;13.820;2024-01-10T08:28:46;110.67;;;43.43;;
44842;SDS011;31884;52.538;13.820;2024-01-10T08:31:12;91.80;;;38.60;;
44842;SDS011;31884;52.538;13.820;2024-01-10T08:33:41;138.80;;;50.83;;
44842;SDS011;31884;52.538;13.820;2024-01-10T08:36:06;117.63;;;45.17;;
44842;SDS011;31884;52.538;13.820;2024-01-10T08:38:32;108.17;;;45.37;;
44842;SDS011;31884;52.538;13.820;2024-01-10T08:40:57;98.37;;;41.70;;
44842;SDS011;31884;52.538;13.820;2024-01-10T08:43:23;96.17;;;38.90;;
44842;SDS011;31884;52.538;13.820;2024-01-10T08:45:48;87.17;;;34.80;;
44842;SDS011;31884;52.538;13.820;2024-01-10T08:48:14;97.47;;;38.50;;
44842;SDS011;31884;52.538;13.820;2024-01-10T08:50:40;110.33;;;46.67;;
44842;SDS011;31884;52.538;13.820;2024-01-10T08:53:06;102.03;;;37.73;;
44842;SDS011;31884;52.538;13.820;2024-01-10T08:55:32;109.60;;;39.13;;
44842;SDS011;31884;52.538;13.820;2024-01-10T08:57:59;107.47;;;42.27;;
44842;SDS011;31884;52.538;13.820;2024-01-10T09:00:24;114.63;;;41.70;;
44842;SDS011;31884;52.538;13.820;2024-01-10T09:02:50;113.80;;;44.65;;
44842;SDS011;31884;52.538;13.820;2024-01-10T09:05:15;125.93;;;44.15;;
44842;SDS011;31884;52.538;13.820;2024-01-10T09:07:41;112.38;;;43.67;;
44842;SDS011;31884;52.538;13.820;2024-01-10T09:10:07;106.05;;;41.85;;
44842;SDS011;31884;52.538;13.820;2024-01-10T09:12:33;115.00;;;46.92;;
44842;SDS011;31884;52.538;13.820;2024-01-10T09:14:59;122.82;;;45.40;;
44842;SDS011;31884;52.538;13.820;2024-01-10T09:17:25;97.20;;;40.83;;
44842;SDS011;31884;52.538;13.820;2024-01-10T09:19:52;113.22;;;46.10;;
44842;SDS011;31884;52.538;13.820;2024-01-10T09:22:18;110.20;;;44.03;;
44842;SDS011;31884;52.538;13.820;2024-01-10T09:24:44;94.10;;;38.45;;
44842;SDS011;31884;52.538;13.820;2024-01-10T09:27:09;99.63;;;40.50;;
44842;SDS011;31884;52.538;13.820;2024-01-10T09:29:35;118.82;;;49.92;;
44842;SDS011;31884;52.538;13.820;2024-01-10T09:32:01;109.03;;;48.05;;
44842;SDS011;31884;52.538;13.820;2024-01-10T09:34:26;107.03;;;44.83;;
44842;SDS011;31884;52.538;13.820;2024-01-10T09:36:52;115.65;;;48.85;;
44842;SDS011;31884;52.538;13.820;2024-01-10T09:39:17;111.65;;;44.45;;
44842;SDS011;31884;52.538;13.820;2024-01-10T09:41:47;114.20;;;47.40;;
44842;SDS011;31884;52.538;13.820;2024-01-10T09:44:13;122.40;;;48.10;;
44842;SDS011;31884;52.538;13.820;2024-01-10T09:46:40;99.57;;;43.35;;
44842;SDS011;31884;52.538;13.820;2024-01-10T09:49:08;103.43;;;44.45;;
44842;SDS011;31884;52.538;13.820;2024-01-10T09:51:34;96.40;;;42.75;;
44842;SDS011;31884;52.538;13.820;2024-01-10T09:53:59;107.15;;;45.20;;
44842;SDS011;31884;52.538;13.820;2024-01-10T09:56:27;101.07;;;43.50;;
44842;SDS011;31884;52.538;13.820;2024-01-10T09:58:53;92.55;;;39.20;;
44842;SDS011;31884;52.538;13.820;2024-01-10T10:01:23;106.53;;;43.33;;
44842;SDS011;31884;52.538;13.820;2024-01-10T10:03:49;98.82;;;44.03;;
44842;SDS011;31884;52.538;13.820;2024-01-10T10:06:15;90.53;;;40.05;;
44842;SDS011;31884;52.538;13.820;2024-01-10T10:08:41;90.93;;;41.00;;
44842;SDS011;31884;52.538;13.820;2024-01-10T10:11:07;106.70;;;41.95;;
44842;SDS011;31884;52.538;13.820;2024-01-10T10:13:38;85.88;;;36.17;;
44842;SDS011;31884;52.538;13.820;2024-01-10T10:16:06;84.40;;;35.65;;
44842;SDS011;31884;52.538;13.820;2024-01-10T10:18:34;90.65;;;36.53;;
44842;SDS011;31884;52.538;13.820;2024-01-10T10:21:07;91.65;;;37.83;;
44842;SDS011;31884;52.538;13.820;2024-01-10T10:23:35;89.68;;;37.92;;
44842;SDS011;31884;52.538;13.820;2024-01-10T10:26:09;91.25;;;39.42;;
44842;SDS011;31884;52.538;13.820;2024-01-10T10:28:36;102.43;;;41.95;;
44842;SDS011;31884;52.538;13.820;2024-01-10T10:31:01;100.90;;;40.22;;
44842;SDS011;31884;52.538;13.820;2024-01-10T10:33:27;90.68;;;39.40;;
44842;SDS011;31884;52.538;13.820;2024-01-10T10:35:54;101.38;;;41.72;;
44842;SDS011;31884;52.538;13.820;2024-01-10T10:38:21;93.20;;;37.92;;
44842;SDS011;31884;52.538;13.820;2024-01-10T10:40:47;78.70;;;35.60;;
44842;SDS011;31884;52.538;13.820;2024-01-10T10:43:13;158.70;;;56.50;;
44842;SDS011;31884;52.538;13.820;2024-01-10T10:45:45;105.28;;;41.53;;
44842;SDS011;31884;52.538;13.820;2024-01-10T10:48:13;109.88;;;41.53;;
44842;SDS011;31884;52.538;13.820;2024-01-10T10:50:42;100.00;;;41.22;;
44842;SDS011;31884;52.538;13.820;2024-01-10T10:53:32;94.57;;;38.38;;
44842;SDS011;31884;52.538;13.820;2024-01-10T10:56:00;93.80;;;36.55;;
44842;SDS011;31884;52.538;13.820;2024-01-10T10:58:27;88.78;;;36.53;;
44842;SDS011;31884;52.538;13.820;2024-01-10T11:00:53;84.32;;;34.45;;
44842;SDS011;31884;52.538;13.820;2024-01-10T11:03:18;73.45;;;33.05;;
44842;SDS011;31884;52.538;13.820;2024-01-10T11:05:46;90.18;;;34.85;;
44842;SDS011;31884;52.538;13.820;2024-01-10T11:08:12;92.50;;;36.80;;
44842;SDS011;31884;52.538;13.820;2024-01-10T11:10:41;81.60;;;33.20;;
44842;SDS011;31884;52.538;13.820;2024-01-10T11:16:00;75.00;;;29.45;;
44842;SDS011;31884;52.538;13.820;2024-01-10T11:24:10;86.20;;;34.92;;
44842;SDS011;31884;52.538;13.820;2024-01-10T11:26:37;97.75;;;37.97;;
44842;SDS011;31884;52.538;13.820;2024-01-10T11:29:03;90.00;;;39.00;;
44842;SDS011;31884;52.538;13.820;2024-01-10T11:31:30;90.18;;;36.33;;
44842;SDS011;31884;52.538;13.820;2024-01-10T11:33:57;78.65;;;34.55;;
44842;SDS011;31884;52.538;13.820;2024-01-10T11:36:23;78.47;;;35.63;;
44842;SDS011;31884;52.538;13.820;2024-01-10T11:46:40;69.78;;;28.92;;
44842;SDS011;31884;52.538;13.820;2024-01-10T11:49:10;72.85;;;31.85;;
44842;SDS011;31884;52.538;13.820;2024-01-10T11:51:37;81.88;;;34.28;;
44842;SDS011;31884;52.538;13.820;2024-01-10T11:54:03;78.88;;;33.28;;
44842;SDS011;31884;52.538;13.820;2024-01-10T11:56:37;69.45;;;28.77;;
44842;SDS011;31884;52.538;13.820;2024-01-10T11:59:07;76.03;;;31.42;;
44842;SDS011;31884;52.538;13.820;2024-01-10T12:01:37;69.18;;;28.88;;
44842;SDS011;31884;52.538;13.820;2024-01-10T12:04:04;58.67;;;26.40;;
44842;SDS011;31884;52.538;13.820;2024-01-10T12:06:30;60.22;;;26.10;;
44842;SDS011;31884;52.538;13.820;2024-01-10T12:08:57;65.68;;;26.38;;
44842;SDS011;31884;52.538;13.820;2024-01-10T12:11:23;71.72;;;27.73;;
44842;SDS011;31884;52.538;13.820;2024-01-10T12:13:48;57.35;;;23.88;;
44842;SDS011;31884;52.538;13.820;2024-01-10T12:16:14;48.25;;;22.50;;
44842;SDS011;31884;52.538;13.820;2024-01-10T12:18:40;56.83;;;23.88;;
44842;SDS011;31884;52.538;13.820;2024-01-10T12:21:07;51.13;;;22.58;;
44842;SDS011;31884;52.538;13.820;2024-01-10T12:23:34;61.42;;;26.10;;
44842;SDS011;31884;52.538;13.820;2024-01-10T12:26:04;59.05;;;23.83;;
44842;SDS011;31884;52.538;13.820;2024-01-10T12:28:39;40.30;;;18.40;;
44842;SDS011;31884;52.538;13.820;2024-01-10T12:31:05;59.70;;;26.05;;
44842;SDS011;31884;52.538;13.820;2024-01-10T12:33:34;64.47;;;25.88;;
44842;SDS011;31884;52.538;13.820;2024-01-10T12:36:09;49.80;;;23.33;;
44842;SDS011;31884;52.538;13.820;2024-01-10T12:38:36;58.30;;;26.02;;
44842;SDS011;31884;52.538;13.820;2024-01-10T12:41:03;57.92;;;27.10;;
44842;SDS011;31884;52.538;13.820;2024-01-10T12:43:29;61.53;;;26.63;;
44842;SDS011;31884;52.538;13.820;2024-01-10T12:46:07;58.97;;;23.95;;
44842;SDS011;31884;52.538;13.820;2024-01-10T12:48:40;52.40;;;23.65;;
44842;SDS011;31884;52.538;13.820;2024-01-10T12:51:10;49.90;;;21.48;;
44842;SDS011;31884;52.538;13.820;2024-01-10T12:53:38;44.85;;;19.02;;
44842;SDS011;31884;52.538;13.820;2024-01-10T12:56:08;44.00;;;18.88;;
44842;SDS011;31884;52.538;13.820;2024-01-10T12:58:39;43.42;;;19.45;;
44842;SDS011;31884;52.538;13.820;2024-01-10T13:01:06;45.95;;;20.35;;
44842;SDS011;31884;52.538;13.820;2024-01-10T13:03:33;50.15;;;22.95;;
44842;SDS011;31884;52.538;13.820;2024-01-10T13:05:59;67.03;;;26.25;;
44842;SDS011;31884;52.538;13.820;2024-01-10T13:08:24;51.33;;;23.20;;
44842;SDS011;31884;52.538;13.820;2024-01-10T13:10:50;52.55;;;23.00;;
44842;SDS011;31884;52.538;13.820;2024-01-10T13:13:15;44.78;;;20.35;;
44842;SDS011;31884;52.538;13.820;2024-01-10T13:15:46;53.63;;;23.08;;
44842;SDS011;31884;52.538;13.820;2024-01-10T13:18:12;47.33;;;21.40;;
44842;SDS011;31884;52.538;13.820;2024-01-10T13:20:39;49.30;;;22.08;;
44842;SDS011;31884;52.538;13.820;2024-01-10T13:23:04;41.13;;;18.67;;
44842;SDS011;31884;52.538;13.820;2024-01-10T13:25:30;41.28;;;17.30;;
44842;SDS011;31884;52.538;13.820;2024-01-10T13:27:56;38.13;;;17.95;;
44842;SDS011;31884;52.538;13.820;2024-01-10T13:30:22;49.03;;;19.58;;
44842;SDS011;31884;52.538;13.820;2024-01-10T13:32:48;48.17;;;19.63;;
44842;SDS011;31884;52.538;13.820;2024-01-10T13:35:14;41.33;;;17.48;;
44842;SDS011;31884;52.538;13.820;2024-01-10T13:37:41;46.53;;;20.58;;
44842;SDS011;31884;52.538;13.820;2024-01-10T13:40:07;42.45;;;18.30;;
44842;SDS011;31884;52.538;13.820;2024-01-10T13:42:34;40.20;;;18.83;;
44842;SDS011;31884;52.538;13.820;2024-01-10T13:45:09;55.08;;;23.42;;
44842;SDS011;31884;52.538;13.820;2024-01-10T13:47:38;50.30;;;22.02;;
44842;SDS011;31884;52.538;13.820;2024-01-10T13:50:04;51.95;;;21.50;;
44842;SDS011;31884;52.538;13.820;2024-01-10T13:52:31;44.33;;;20.25;;
44842;SDS011;31884;52.538;13.820;2024-01-10T13:54:57;48.92;;;20.63;;
44842;SDS011;31884;52.538;13.820;2024-01-10T13:57:23;52.08;;;20.60;;
44842;SDS011;31884;52.538;13.820;2024-01-10T13:59:48;62.15;;;25.25;;
44842;SDS011;31884;52.538;13.820;2024-01-10T14:02:14;47.33;;;20.42;;
44842;SDS011;31884;52.538;13.820;2024-01-10T14:04:39;52.70;;;21.20;;
44842;SDS011;31884;52.538;13.820;2024-01-10T14:07:06;52.45;;;22.45;;
44842;SDS011;31884;52.538;13.820;2024-01-10T14:09:31;48.28;;;20.25;;
44842;SDS011;31884;52.538;13.820;2024-01-10T14:11:57;39.42;;;18.40;;
44842;SDS011;31884;52.538;13.820;2024-01-10T14:14:22;43.65;;;21.13;;
44842;SDS011;31884;52.538;13.820;2024-01-10T14:16:48;42.78;;;19.27;;